sensor_id;sensor_type;location;lat;lon;timestamp;P1;durP1;ratioP1;P2;durP2;ratioP2
55350;SDS011;62194;49.480;10.986;2023-02-28T00:00:04;5.93;;;3.47;;
55350;SDS011;62194;49.480;10.986;2023-02-28T00:00:16;5.76;;;3.40;;
55350;SDS011;62194;49.480;10.986;2023-02-28T00:00:22;5.23;;;3.30;;
55350;SDS011;62194;49.480;10.986;2023-02-28T00:00:27;5.25;;;3.40;;
55350;SDS011;62194;49.480;10.986;2023-02-28T00:00:34;5.43;;;3.53;;
55350;SDS011;62194;49.480;10.986;2023-02-28T00:00:40;5.22;;;3.44;;
55350;SDS011;62194;49.480;10.986;2023-02-28T00:00:46;5.28;;;3.50;;
55350;SDS011;62194;49.480;10.986;2023-02-28T00:00:51;5.37;;;3.60;;
55350;SDS011;62194;49.480;10.986;2023-02-28T00:00:56;5.47;;;3.60;;
55350;SDS011;62194;49.480;10.986;2023-02-28T00:01:02;5.18;;;3.35;;
55350;SDS011;62194;49.480;10.986;2023-02-28T00:01:07;4.60;;;3.20;;
55350;SDS011;62194;49.480;10.986;2023-02-28T00:01:13;4.77;;;3.10;;
55350;SDS011;62194;49.480;10.986;2023-02-28T00:01:20;4.68;;;3.15;;
55350;SDS011;62194;49.480;10.986;2023-02-28T00:01:26;4.57;;;3.13;;
55350;SDS011;62194;49.480;10.986;2023-02-28T00:01:32;4.78;;;3.25;;
55350;SDS011;62194;49.480;10.986;2023-02-28T00:01:38;4.80;;;3.22;;
55350;SDS011;62194;49.480;10.986;2023-02-28T00:01:44;4.70;;;3.30;;
55350;SDS011;62194;49.480;10.986;2023-02-28T00:01:49;4.88;;;3.22;;
55350;SDS011;62194;49.480;10.986;2023-02-28T00:01:55;5.07;;;3.30;;
55350;SDS011;62194;49.480;10.986;2023-02-28T00:02:00;5.40;;;3.30;;
55350;SDS011;62194;49.480;10.986;2023-02-28T00:02:05;5.57;;;3.38;;
55350;SDS011;62194;49.480;10.986;2023-02-28T00:02:11;6.00;;;3.43;;
55350;SDS011;62194;49.480;10.986;2023-02-28T00:02:16;6.57;;;3.57;;
55350;SDS011;62194;49.480;10.986;2023-02-28T00:02:24;6.31;;;3.57;;
55350;SDS011;62194;49.480;10.986;2023-02-28T00:02:29;6.03;;;3.50;;
55350;SDS011;62194;49.480;10.986;2023-02-28T00:02:35;6.03;;;3.47;;
55350;SDS011;62194;49.480;10.986;2023-02-28T00:02:45;5.34;;;3.31;;
55350;SDS011;62194;49.480;10.986;2023-02-28T00:02:51;5.33;;;3.20;;
55350;SDS011;62194;49.480;10.986;2023-02-28T00:02:56;5.33;;;3.10;;
55350;SDS011;62194;49.480;10.986;2023-02-28T00:03:02;5.67;;;3.10;;
55350;SDS011;62194;49.480;10.986;2023-02-28T00:03:08;5.63;;;3.20;;
55350;SDS011;62194;49.480;10.986;2023-02-28T00:03:13;5.60;;;3.27;;
55350;SDS011;62194;49.480;10.986;2023-02-28T00:03:19;5.27;;;3.40;;
55350;SDS011;62194;49.480;10.986;2023-02-28T00:03:24;5.00;;;3.38;;
55350;SDS011;62194;49.480;10.986;2023-02-28T00:03:29;5.23;;;3.43;;
55350;SDS011;62194;49.480;10.986;2023-02-28T00:03:35;5.33;;;3.50;;
55350;SDS011;62194;49.480;10.986;2023-02-28T00:03:40;5.53;;;3.45;;
55350;SDS011;62194;49.480;10.986;2023-02-28T00:03:45;5.63;;;3.33;;
55350;SDS011;62194;49.480;10.986;2023-02-28T00:03:50;5.77;;;3.27;;
55350;SDS011;62194;49.480;10.986;2023-02-28T00:03:56;5.93;;;3.30;;
55350;SDS011;62194;49.480;10.986;2023-02-28T00:04:02;5.63;;;3.30;;
55350;SDS011;62194;49.480;10.986;2023-02-28T00:04:07;5.53;;;3.28;;
55350;SDS011;62194;49.480;10.986;2023-02-28T00:04:14;5.28;;;3.16;;
55350;SDS011;62194;49.480;10.986;2023-02-28T00:04:19;5.60;;;3.20;;
55350;SDS011;62194;49.480;10.986;2023-02-28T00:04:27;5.53;;;3.20;;
55350;SDS011;62194;49.480;10.986;2023-02-28T00:04:32;5.00;;;3.10;;
55350;SDS011;62194;49.480;10.986;2023-02-28T00:04:38;5.13;;;3.17;;
55350;SDS011;62194;49.480;10.986;2023-02-28T00:04:46;5.40;;;3.27;;
55350;SDS011;62194;49.480;10.986;2023-02-28T00:04:57;4.92;;;3.29;;
55350;SDS011;62194;49.480;10.986;2023-02-28T00:05:06;5.30;;;3.30;;
55350;SDS011;62194;49.480;10.986;2023-02-28T00:05:17;5.14;;;3.22;;
55350;SDS011;62194;49.480;10.986;2023-02-28T00:05:27;5.01;;;3.19;;
55350;SDS011;62194;49.480;10.986;2023-02-28T00:05:33;4.73;;;3.20;;
55350;SDS011;62194;49.480;10.986;2023-02-28T00:05:41;4.78;;;3.20;;
55350;SDS011;62194;49.480;10.986;2023-02-28T00:05:47;5.40;;;3.17;;
55350;SDS011;62194;49.480;10.986;2023-02-28T00:05:52;5.67;;;3.33;;
55350;SDS011;62194;49.480;10.986;2023-02-28T00:05:57;6.70;;;3.42;;
55350;SDS011;62194;49.480;10.986;2023-02-28T00:06:06;7.00;;;3.60;;
55350;SDS011;62194;49.480;10.986;2023-02-28T00:06:13;7.47;;;3.77;;
55350;SDS011;62194;49.480;10.986;2023-02-28T00:06:20;7.70;;;3.70;;
55350;SDS011;62194;49.480;10.986;2023-02-28T00:06:29;7.33;;;3.47;;
55350;SDS011;62194;49.480;10.986;2023-02-28T00:06:34;6.57;;;3.20;;
55350;SDS011;62194;49.480;10.986;2023-02-28T00:06:42;5.97;;;3.07;;
55350;SDS011;62194;49.480;10.986;2023-02-28T00:06:51;5.10;;;3.10;;
55350;SDS011;62194;49.480;10.986;2023-02-28T00:06:56;4.97;;;3.20;;
55350;SDS011;62194;49.480;10.986;2023-02-28T00:07:05;5.93;;;3.30;;
55350;SDS011;62194;49.480;10.986;2023-02-28T00:07:10;6.45;;;3.33;;
55350;SDS011;62194;49.480;10.986;2023-02-28T00:07:18;6.67;;;3.37;;
55350;SDS011;62194;49.480;10.986;2023-02-28T00:07:30;6.46;;;3.40;;
55350;SDS011;62194;49.480;10.986;2023-02-28T00:07:41;5.57;;;3.40;;
55350;SDS011;62194;49.480;10.986;2023-02-28T00:07:47;5.43;;;3.40;;
55350;SDS011;62194;49.480;10.986;2023-02-28T00:07:59;5.07;;;3.26;;
55350;SDS011;62194;49.480;10.986;2023-02-28T00:08:04;5.14;;;3.17;;
55350;SDS011;62194;49.480;10.986;2023-02-28T00:08:12;4.93;;;3.27;;
55350;SDS011;62194;49.480;10.986;2023-02-28T00:08:18;4.68;;;3.17;;
55350;SDS011;62194;49.480;10.986;2023-02-28T00:08:23;4.95;;;3.22;;
55350;SDS011;62194;49.480;10.986;2023-02-28T00:08:36;5.33;;;3.30;;
55350;SDS011;62194;49.480;10.986;2023-02-28T00:08:42;5.09;;;3.22;;
55350;SDS011;62194;49.480;10.986;2023-02-28T00:08:48;5.32;;;3.35;;
55350;SDS011;62194;49.480;10.986;2023-02-28T00:08:56;4.70;;;3.37;;
55350;SDS011;62194;49.480;10.986;2023-02-28T00:09:09;4.74;;;3.29;;
55350;SDS011;62194;49.480;10.986;2023-02-28T00:09:17;5.32;;;3.46;;
55350;SDS011;62194;49.480;10.986;2023-02-28T00:09:23;5.38;;;3.47;;
55350;SDS011;62194;49.480;10.986;2023-02-28T00:09:34;5.68;;;3.50;;
55350;SDS011;62194;49.480;10.986;2023-02-28T00:09:39;5.95;;;3.53;;
55350;SDS011;62194;49.480;10.986;2023-02-28T00:09:47;5.13;;;3.20;;
55350;SDS011;62194;49.480;10.986;2023-02-28T00:09:53;5.00;;;3.13;;
55350;SDS011;62194;49.480;10.986;2023-02-28T00:10:06;4.81;;;3.16;;
55350;SDS011;62194;49.480;10.986;2023-02-28T00:10:29;5.06;;;3.31;;
55350;SDS011;62194;49.480;10.986;2023-02-28T00:10:38;5.30;;;3.23;;
55350;SDS011;62194;49.480;10.986;2023-02-28T00:10:43;5.72;;;3.20;;
55350;SDS011;62194;49.480;10.986;2023-02-28T00:10:49;6.17;;;3.40;;
55350;SDS011;62194;49.480;10.986;2023-02-28T00:10:54;5.53;;;3.13;;
55350;SDS011;62194;49.480;10.986;2023-02-28T00:11:08;5.72;;;3.13;;
55350;SDS011;62194;49.480;10.986;2023-02-28T00:11:22;6.14;;;3.26;;
55350;SDS011;62194;49.480;10.986;2023-02-28T00:11:30;5.91;;;3.16;;
55350;SDS011;62194;49.480;10.986;2023-02-28T00:11:35;5.95;;;3.13;;
55350;SDS011;62194;49.480;10.986;2023-02-28T00:11:42;5.88;;;3.26;;
55350;SDS011;62194;49.480;10.986;2023-02-28T00:11:48;5.90;;;3.30;;
55350;SDS011;62194;49.480;10.986;2023-02-28T00:11:56;6.20;;;3.40;;
55350;SDS011;62194;49.480;10.986;2023-02-28T00:12:03;6.07;;;3.47;;
55350;SDS011;62194;49.480;10.986;2023-02-28T00:12:25;6.39;;;3.51;;
55350;SDS011;62194;49.480;10.986;2023-02-28T00:12:33;6.04;;;3.55;;
55350;SDS011;62194;49.480;10.986;2023-02-28T00:12:40;4.83;;;3.30;;
55350;SDS011;62194;49.480;10.986;2023-02-28T00:12:48;4.83;;;3.24;;
55350;SDS011;62194;49.480;10.986;2023-02-28T00:13:06;4.90;;;3.20;;
55350;SDS011;62194;49.480;10.986;2023-02-28T00:13:12;4.90;;;3.20;;
55350;SDS011;62194;49.480;10.986;2023-02-28T00:13:20;4.51;;;3.13;;
55350;SDS011;62194;49.480;10.986;2023-02-28T00:13:28;4.53;;;3.20;;
55350;SDS011;62194;49.480;10.986;2023-02-28T00:13:37;4.80;;;3.21;;
55350;SDS011;62194;49.480;10.986;2023-02-28T00:13:53;5.41;;;3.28;;
55350;SDS011;62194;49.480;10.986;2023-02-28T00:14:01;5.03;;;3.00;;
55350;SDS011;62194;49.480;10.986;2023-02-28T00:14:06;4.82;;;2.83;;
55350;SDS011;62194;49.480;10.986;2023-02-28T00:14:12;4.15;;;2.70;;
55350;SDS011;62194;49.480;10.986;2023-02-28T00:14:17;3.57;;;2.70;;
55350;SDS011;62194;49.480;10.986;2023-02-28T00:14:23;3.88;;;2.83;;
55350;SDS011;62194;49.480;10.986;2023-02-28T00:14:31;4.40;;;3.03;;
55350;SDS011;62194;49.480;10.986;2023-02-28T00:14:36;4.53;;;3.17;;
55350;SDS011;62194;49.480;10.986;2023-02-28T00:14:44;5.07;;;3.23;;
55350;SDS011;62194;49.480;10.986;2023-02-28T00:14:52;5.32;;;3.28;;
55350;SDS011;62194;49.480;10.986;2023-02-28T00:14:57;4.97;;;3.20;;
55350;SDS011;62194;49.480;10.986;2023-02-28T00:15:06;4.87;;;3.13;;
55350;SDS011;62194;49.480;10.986;2023-02-28T00:15:14;4.95;;;3.20;;
55350;SDS011;62194;49.480;10.986;2023-02-28T00:15:29;4.76;;;3.14;;
55350;SDS011;62194;49.480;10.986;2023-02-28T00:15:40;4.77;;;3.21;;
55350;SDS011;62194;49.480;10.986;2023-02-28T00:15:46;4.90;;;3.30;;
55350;SDS011;62194;49.480;10.986;2023-02-28T00:16:24;4.82;;;3.33;;
55350;SDS011;62194;49.480;10.986;2023-02-28T00:16:35;4.15;;;3.17;;
55350;SDS011;62194;49.480;10.986;2023-02-28T00:16:54;4.30;;;3.08;;
55350;SDS011;62194;49.480;10.986;2023-02-28T00:16:59;4.53;;;3.20;;
55350;SDS011;62194;49.480;10.986;2023-02-28T00:17:08;4.75;;;3.17;;
55350;SDS011;62194;49.480;10.986;2023-02-28T00:17:16;4.60;;;3.13;;
55350;SDS011;62194;49.480;10.986;2023-02-28T00:17:25;4.66;;;3.15;;
55350;SDS011;62194;49.480;10.986;2023-02-28T00:17:34;4.75;;;3.17;;
55350;SDS011;62194;49.480;10.986;2023-02-28T00:17:42;4.78;;;3.15;;
55350;SDS011;62194;49.480;10.986;2023-02-28T00:17:56;4.75;;;3.09;;
55350;SDS011;62194;49.480;10.986;2023-02-28T00:18:02;4.60;;;3.10;;
55350;SDS011;62194;49.480;10.986;2023-02-28T00:18:10;5.24;;;3.06;;
55350;SDS011;62194;49.480;10.986;2023-02-28T00:18:16;5.17;;;3.20;;
55350;SDS011;62194;49.480;10.986;2023-02-28T00:18:22;5.47;;;3.23;;
55350;SDS011;62194;49.480;10.986;2023-02-28T00:18:27;5.22;;;3.10;;
55350;SDS011;62194;49.480;10.986;2023-02-28T00:18:33;5.17;;;3.10;;
55350;SDS011;62194;49.480;10.986;2023-02-28T00:18:40;4.53;;;3.08;;
55350;SDS011;62194;49.480;10.986;2023-02-28T00:18:49;5.11;;;3.10;;
55350;SDS011;62194;49.480;10.986;2023-02-28T00:18:58;5.50;;;3.20;;
55350;SDS011;62194;49.480;10.986;2023-02-28T00:19:03;5.27;;;3.10;;
55350;SDS011;62194;49.480;10.986;2023-02-28T00:19:09;5.15;;;3.10;;
55350;SDS011;62194;49.480;10.986;2023-02-28T00:19:18;4.63;;;2.94;;
55350;SDS011;62194;49.480;10.986;2023-02-28T00:19:25;4.20;;;2.73;;
55350;SDS011;62194;49.480;10.986;2023-02-28T00:19:37;4.17;;;2.84;;
55350;SDS011;62194;49.480;10.986;2023-02-28T00:19:44;4.38;;;2.98;;
55350;SDS011;62194;49.480;10.986;2023-02-28T00:19:50;4.43;;;3.03;;
55350;SDS011;62194;49.480;10.986;2023-02-28T00:19:56;5.05;;;3.15;;
55350;SDS011;62194;49.480;10.986;2023-02-28T00:20:22;5.28;;;3.08;;
55350;SDS011;62194;49.480;10.986;2023-02-28T00:20:30;4.07;;;3.00;;
55350;SDS011;62194;49.480;10.986;2023-02-28T00:20:35;3.72;;;2.95;;
55350;SDS011;62194;49.480;10.986;2023-02-28T00:20:44;3.57;;;2.87;;
55350;SDS011;62194;49.480;10.986;2023-02-28T00:20:55;3.79;;;2.97;;
55350;SDS011;62194;49.480;10.986;2023-02-28T00:21:03;4.33;;;3.02;;
55350;SDS011;62194;49.480;10.986;2023-02-28T00:21:11;4.40;;;2.95;;
55350;SDS011;62194;49.480;10.986;2023-02-28T00:21:24;4.55;;;2.83;;
55350;SDS011;62194;49.480;10.986;2023-02-28T00:21:32;4.93;;;2.78;;
55350;SDS011;62194;49.480;10.986;2023-02-28T00:21:43;5.37;;;2.90;;
55350;SDS011;62194;49.480;10.986;2023-02-28T00:21:57;5.61;;;3.42;;
55350;SDS011;62194;49.480;10.986;2023-02-28T00:22:04;5.51;;;3.61;;
55350;SDS011;62194;49.480;10.986;2023-02-28T00:22:10;5.80;;;3.95;;
55350;SDS011;62194;49.480;10.986;2023-02-28T00:22:21;6.10;;;3.47;;
55350;SDS011;62194;49.480;10.986;2023-02-28T00:22:27;5.58;;;3.23;;
55350;SDS011;62194;49.480;10.986;2023-02-28T00:22:32;5.20;;;3.00;;
55350;SDS011;62194;49.480;10.986;2023-02-28T00:22:43;4.47;;;2.61;;
55350;SDS011;62194;49.480;10.986;2023-02-28T00:22:54;4.18;;;2.67;;
55350;SDS011;62194;49.480;10.986;2023-02-28T00:22:59;4.60;;;2.93;;
55350;SDS011;62194;49.480;10.986;2023-02-28T00:23:05;5.07;;;3.10;;
55350;SDS011;62194;49.480;10.986;2023-02-28T00:23:10;5.07;;;3.30;;
55350;SDS011;62194;49.480;10.986;2023-02-28T00:23:21;4.85;;;3.30;;
55350;SDS011;62194;49.480;10.986;2023-02-28T00:23:30;4.48;;;3.23;;
55350;SDS011;62194;49.480;10.986;2023-02-28T00:23:35;3.97;;;3.03;;
55350;SDS011;62194;49.480;10.986;2023-02-28T00:23:41;3.90;;;2.97;;
55350;SDS011;62194;49.480;10.986;2023-02-28T00:23:47;3.90;;;2.85;;
55350;SDS011;62194;49.480;10.986;2023-02-28T00:23:52;3.63;;;2.80;;
55350;SDS011;62194;49.480;10.986;2023-02-28T00:24:03;4.00;;;2.80;;
55350;SDS011;62194;49.480;10.986;2023-02-28T00:24:20;3.99;;;2.78;;
55350;SDS011;62194;49.480;10.986;2023-02-28T00:24:26;3.90;;;2.72;;
55350;SDS011;62194;49.480;10.986;2023-02-28T00:24:31;3.67;;;2.77;;
55350;SDS011;62194;49.480;10.986;2023-02-28T00:24:40;3.78;;;2.90;;
55350;SDS011;62194;49.480;10.986;2023-02-28T00:24:48;4.34;;;3.06;;
55350;SDS011;62194;49.480;10.986;2023-02-28T00:24:53;4.60;;;3.10;;
55350;SDS011;62194;49.480;10.986;2023-02-28T00:25:18;4.80;;;3.28;;
55350;SDS011;62194;49.480;10.986;2023-02-28T00:25:25;5.04;;;3.15;;
55350;SDS011;62194;49.480;10.986;2023-02-28T00:25:33;4.33;;;2.60;;
55350;SDS011;62194;49.480;10.986;2023-02-28T00:25:41;4.47;;;2.60;;
55350;SDS011;62194;49.480;10.986;2023-02-28T00:25:49;4.75;;;2.67;;
55350;SDS011;62194;49.480;10.986;2023-02-28T00:25:58;3.97;;;2.70;;
55350;SDS011;62194;49.480;10.986;2023-02-28T00:26:03;3.92;;;2.80;;
55350;SDS011;62194;49.480;10.986;2023-02-28T00:26:12;3.74;;;2.86;;
55350;SDS011;62194;49.480;10.986;2023-02-28T00:26:18;3.50;;;2.70;;
55350;SDS011;62194;49.480;10.986;2023-02-28T00:26:28;3.58;;;2.70;;
55350;SDS011;62194;49.480;10.986;2023-02-28T00:27:07;3.60;;;2.70;;
55350;SDS011;62194;49.480;10.986;2023-02-28T00:27:08;3.71;;;2.83;;
55350;SDS011;62194;49.480;10.986;2023-02-28T00:27:14;3.83;;;3.00;;
55350;SDS011;62194;49.480;10.986;2023-02-28T00:27:22;4.38;;;2.93;;
55350;SDS011;62194;49.480;10.986;2023-02-28T00:27:33;4.70;;;2.93;;
55350;SDS011;62194;49.480;10.986;2023-02-28T00:27:42;4.80;;;2.93;;
55350;SDS011;62194;49.480;10.986;2023-02-28T00:27:51;5.46;;;3.10;;
55350;SDS011;62194;49.480;10.986;2023-02-28T00:27:57;4.78;;;2.92;;
55350;SDS011;62194;49.480;10.986;2023-02-28T00:28:08;5.90;;;3.00;;
55350;SDS011;62194;49.480;10.986;2023-02-28T00:28:15;5.30;;;2.90;;
55350;SDS011;62194;49.480;10.986;2023-02-28T00:28:26;5.18;;;2.88;;
55350;SDS011;62194;49.480;10.986;2023-02-28T00:28:33;5.04;;;2.90;;
55350;SDS011;62194;49.480;10.986;2023-02-28T00:28:39;4.75;;;2.90;;
55350;SDS011;62194;49.480;10.986;2023-02-28T00:28:47;5.03;;;2.80;;
55350;SDS011;62194;49.480;10.986;2023-02-28T00:28:57;4.90;;;2.90;;
55350;SDS011;62194;49.480;10.986;2023-02-28T00:29:03;4.53;;;2.83;;
55350;SDS011;62194;49.480;10.986;2023-02-28T00:29:08;4.33;;;2.80;;
55350;SDS011;62194;49.480;10.986;2023-02-28T00:29:14;3.98;;;2.80;;
55350;SDS011;62194;49.480;10.986;2023-02-28T00:29:20;3.87;;;2.70;;
55350;SDS011;62194;49.480;10.986;2023-02-28T00:29:43;4.05;;;2.79;;
55350;SDS011;62194;49.480;10.986;2023-02-28T00:29:51;4.25;;;2.85;;
55350;SDS011;62194;49.480;10.986;2023-02-28T00:29:59;4.70;;;2.88;;
55350;SDS011;62194;49.480;10.986;2023-02-28T00:30:05;5.20;;;2.90;;
55350;SDS011;62194;49.480;10.986;2023-02-28T00:30:12;5.00;;;2.90;;
55350;SDS011;62194;49.480;10.986;2023-02-28T00:30:20;4.80;;;2.90;;
55350;SDS011;62194;49.480;10.986;2023-02-28T00:30:31;4.42;;;2.90;;
55350;SDS011;62194;49.480;10.986;2023-02-28T00:30:38;4.47;;;2.90;;
55350;SDS011;62194;49.480;10.986;2023-02-28T00:30:44;4.35;;;2.85;;
55350;SDS011;62194;49.480;10.986;2023-02-28T00:31:24;4.66;;;2.95;;
55350;SDS011;62194;49.480;10.986;2023-02-28T00:31:30;4.20;;;2.75;;
55350;SDS011;62194;49.480;10.986;2023-02-28T00:31:38;4.37;;;2.90;;
55350;SDS011;62194;49.480;10.986;2023-02-28T00:31:43;4.48;;;3.05;;
55350;SDS011;62194;49.480;10.986;2023-02-28T00:31:53;4.40;;;3.17;;
55350;SDS011;62194;49.480;10.986;2023-02-28T00:32:02;4.42;;;2.93;;
55350;SDS011;62194;49.480;10.986;2023-02-28T00:32:08;4.97;;;3.00;;
55350;SDS011;62194;49.480;10.986;2023-02-28T00:32:16;5.40;;;2.90;;
55350;SDS011;62194;49.480;10.986;2023-02-28T00:32:26;5.20;;;2.91;;
55350;SDS011;62194;49.480;10.986;2023-02-28T00:32:31;4.83;;;2.97;;
55350;SDS011;62194;49.480;10.986;2023-02-28T00:32:40;4.35;;;2.78;;
55350;SDS011;62194;49.480;10.986;2023-02-28T00:32:48;4.29;;;2.97;;
55350;SDS011;62194;49.480;10.986;2023-02-28T00:32:56;4.68;;;3.20;;
55350;SDS011;62194;49.480;10.986;2023-02-28T00:33:05;4.87;;;3.13;;
55350;SDS011;62194;49.480;10.986;2023-02-28T00:33:12;5.04;;;3.30;;
55350;SDS011;62194;49.480;10.986;2023-02-28T00:33:20;5.67;;;3.20;;
55350;SDS011;62194;49.480;10.986;2023-02-28T00:33:26;5.63;;;3.25;;
55350;SDS011;62194;49.480;10.986;2023-02-28T00:33:35;6.05;;;3.30;;
55350;SDS011;62194;49.480;10.986;2023-02-28T00:33:40;5.67;;;3.20;;
55350;SDS011;62194;49.480;10.986;2023-02-28T00:33:46;4.38;;;3.22;;
55350;SDS011;62194;49.480;10.986;2023-02-28T00:33:51;4.77;;;3.20;;
55350;SDS011;62194;49.480;10.986;2023-02-28T00:34:01;4.72;;;3.12;;
55350;SDS011;62194;49.480;10.986;2023-02-28T00:34:10;4.54;;;3.10;;
55350;SDS011;62194;49.480;10.986;2023-02-28T00:34:15;4.57;;;3.10;;
55350;SDS011;62194;49.480;10.986;2023-02-28T00:34:24;4.27;;;3.03;;
55350;SDS011;62194;49.480;10.986;2023-02-28T00:34:29;5.49;;;3.20;;
55350;SDS011;62194;49.480;10.986;2023-02-28T00:34:35;5.57;;;3.20;;
55350;SDS011;62194;49.480;10.986;2023-02-28T00:34:42;6.00;;;3.20;;
55350;SDS011;62194;49.480;10.986;2023-02-28T00:34:50;6.03;;;3.15;;
55350;SDS011;62194;49.480;10.986;2023-02-28T00:34:55;5.57;;;3.12;;
55350;SDS011;62194;49.480;10.986;2023-02-28T00:35:01;4.55;;;2.97;;
55350;SDS011;62194;49.480;10.986;2023-02-28T00:35:10;4.35;;;3.00;;
55350;SDS011;62194;49.480;10.986;2023-02-28T00:35:19;4.73;;;3.04;;
55350;SDS011;62194;49.480;10.986;2023-02-28T00:35:37;5.97;;;3.42;;
55350;SDS011;62194;49.480;10.986;2023-02-28T00:36:04;5.59;;;3.06;;
55350;SDS011;62194;49.480;10.986;2023-02-28T00:36:11;4.29;;;2.78;;
55350;SDS011;62194;49.480;10.986;2023-02-28T00:36:17;3.97;;;2.83;;
55350;SDS011;62194;49.480;10.986;2023-02-28T00:36:22;3.85;;;2.78;;
55350;SDS011;62194;49.480;10.986;2023-02-28T00:36:27;4.33;;;2.80;;
55350;SDS011;62194;49.480;10.986;2023-02-28T00:36:35;4.33;;;2.80;;
55350;SDS011;62194;49.480;10.986;2023-02-28T00:36:51;4.27;;;2.73;;
55350;SDS011;62194;49.480;10.986;2023-02-28T00:37:00;3.83;;;2.67;;
55350;SDS011;62194;49.480;10.986;2023-02-28T00:37:06;3.43;;;2.67;;
55350;SDS011;62194;49.480;10.986;2023-02-28T00:37:25;4.18;;;3.03;;
55350;SDS011;62194;49.480;10.986;2023-02-28T00:37:39;6.19;;;3.50;;
55350;SDS011;62194;49.480;10.986;2023-02-28T00:37:56;6.17;;;3.57;;
55350;SDS011;62194;49.480;10.986;2023-02-28T00:38:06;5.20;;;3.28;;
55350;SDS011;62194;49.480;10.986;2023-02-28T00:38:13;5.10;;;2.98;;
55350;SDS011;62194;49.480;10.986;2023-02-28T00:38:19;6.04;;;3.28;;
55350;SDS011;62194;49.480;10.986;2023-02-28T00:38:24;5.77;;;3.10;;
55350;SDS011;62194;49.480;10.986;2023-02-28T00:38:30;5.53;;;3.00;;
55350;SDS011;62194;49.480;10.986;2023-02-28T00:38:36;5.30;;;3.10;;
55350;SDS011;62194;49.480;10.986;2023-02-28T00:38:42;5.24;;;3.16;;
55350;SDS011;62194;49.480;10.986;2023-02-28T00:38:50;5.45;;;2.93;;
55350;SDS011;62194;49.480;10.986;2023-02-28T00:38:58;6.27;;;3.00;;
55350;SDS011;62194;49.480;10.986;2023-02-28T00:39:06;6.34;;;2.92;;
55350;SDS011;62194;49.480;10.986;2023-02-28T00:39:11;6.50;;;2.97;;
55350;SDS011;62194;49.480;10.986;2023-02-28T00:39:22;5.43;;;2.93;;
55350;SDS011;62194;49.480;10.986;2023-02-28T00:39:36;5.63;;;3.13;;
55350;SDS011;62194;49.480;10.986;2023-02-28T00:39:45;5.09;;;2.95;;
55350;SDS011;62194;49.480;10.986;2023-02-28T00:39:51;5.03;;;2.90;;
55350;SDS011;62194;49.480;10.986;2023-02-28T00:39:59;4.64;;;2.73;;
55350;SDS011;62194;49.480;10.986;2023-02-28T00:40:11;4.45;;;2.90;;
55350;SDS011;62194;49.480;10.986;2023-02-28T00:40:20;3.90;;;2.90;;
55350;SDS011;62194;49.480;10.986;2023-02-28T00:40:25;4.20;;;3.08;;
55350;SDS011;62194;49.480;10.986;2023-02-28T00:40:31;4.50;;;3.05;;
55350;SDS011;62194;49.480;10.986;2023-02-28T00:40:36;4.83;;;3.10;;
55350;SDS011;62194;49.480;10.986;2023-02-28T00:40:45;5.01;;;3.14;;
55350;SDS011;62194;49.480;10.986;2023-02-28T00:40:53;6.03;;;3.20;;
55350;SDS011;62194;49.480;10.986;2023-02-28T00:40:59;5.60;;;3.30;;
55350;SDS011;62194;49.480;10.986;2023-02-28T00:41:10;5.30;;;3.26;;
55350;SDS011;62194;49.480;10.986;2023-02-28T00:41:15;5.95;;;3.60;;
55350;SDS011;62194;49.480;10.986;2023-02-28T00:41:25;5.40;;;3.60;;
55350;SDS011;62194;49.480;10.986;2023-02-28T00:41:33;5.60;;;3.69;;
55350;SDS011;62194;49.480;10.986;2023-02-28T00:41:43;5.33;;;3.45;;
55350;SDS011;62194;49.480;10.986;2023-02-28T00:41:49;5.22;;;3.20;;
55350;SDS011;62194;49.480;10.986;2023-02-28T00:42:00;5.18;;;3.18;;
55350;SDS011;62194;49.480;10.986;2023-02-28T00:42:09;5.26;;;3.03;;
55350;SDS011;62194;49.480;10.986;2023-02-28T00:42:15;5.53;;;2.97;;
55350;SDS011;62194;49.480;10.986;2023-02-28T00:42:20;5.00;;;2.80;;
55350;SDS011;62194;49.480;10.986;2023-02-28T00:42:31;4.87;;;2.78;;
55350;SDS011;62194;49.480;10.986;2023-02-28T00:42:43;4.54;;;2.94;;
55350;SDS011;62194;49.480;10.986;2023-02-28T00:42:51;4.57;;;3.12;;
55350;SDS011;62194;49.480;10.986;2023-02-28T00:42:56;4.63;;;3.27;;
55350;SDS011;62194;49.480;10.986;2023-02-28T00:43:02;4.63;;;3.35;;
55350;SDS011;62194;49.480;10.986;2023-02-28T00:43:08;4.87;;;3.40;;
55350;SDS011;62194;49.480;10.986;2023-02-28T00:43:13;4.97;;;3.37;;
55350;SDS011;62194;49.480;10.986;2023-02-28T00:43:22;4.68;;;3.30;;
55350;SDS011;62194;49.480;10.986;2023-02-28T00:43:33;4.46;;;3.03;;
55350;SDS011;62194;49.480;10.986;2023-02-28T00:43:41;4.10;;;2.77;;
55350;SDS011;62194;49.480;10.986;2023-02-28T00:43:46;4.03;;;2.78;;
55350;SDS011;62194;49.480;10.986;2023-02-28T00:43:54;4.20;;;2.88;;
55350;SDS011;62194;49.480;10.986;2023-02-28T00:43:59;4.05;;;2.88;;
55350;SDS011;62194;49.480;10.986;2023-02-28T00:44:10;3.83;;;2.87;;
55350;SDS011;62194;49.480;10.986;2023-02-28T00:44:17;4.00;;;2.90;;
55350;SDS011;62194;49.480;10.986;2023-02-28T00:44:26;4.73;;;2.97;;
55350;SDS011;62194;49.480;10.986;2023-02-28T00:44:40;5.00;;;3.05;;
55350;SDS011;62194;49.480;10.986;2023-02-28T00:44:54;5.04;;;3.09;;
55350;SDS011;62194;49.480;10.986;2023-02-28T00:45:03;4.80;;;2.97;;
55350;SDS011;62194;49.480;10.986;2023-02-28T00:45:13;4.40;;;2.74;;
55350;SDS011;62194;49.480;10.986;2023-02-28T00:45:18;4.47;;;2.85;;
55350;SDS011;62194;49.480;10.986;2023-02-28T00:45:29;4.78;;;2.83;;
55350;SDS011;62194;49.480;10.986;2023-02-28T00:45:35;5.48;;;2.92;;
55350;SDS011;62194;49.480;10.986;2023-02-28T00:45:40;6.15;;;3.20;;
55350;SDS011;62194;49.480;10.986;2023-02-28T00:45:45;6.37;;;3.30;;
55350;SDS011;62194;49.480;10.986;2023-02-28T00:45:56;5.70;;;3.30;;
55350;SDS011;62194;49.480;10.986;2023-02-28T00:46:02;5.15;;;3.25;;
55350;SDS011;62194;49.480;10.986;2023-02-28T00:46:08;4.85;;;3.20;;
55350;SDS011;62194;49.480;10.986;2023-02-28T00:46:13;4.57;;;3.23;;
55350;SDS011;62194;49.480;10.986;2023-02-28T00:46:21;4.50;;;3.28;;
55350;SDS011;62194;49.480;10.986;2023-02-28T00:46:27;4.70;;;3.27;;
55350;SDS011;62194;49.480;10.986;2023-02-28T00:46:32;4.60;;;3.20;;
55350;SDS011;62194;49.480;10.986;2023-02-28T00:46:40;4.17;;;3.03;;
55350;SDS011;62194;49.480;10.986;2023-02-28T00:46:48;3.95;;;2.90;;
55350;SDS011;62194;49.480;10.986;2023-02-28T00:46:53;3.70;;;2.90;;
55350;SDS011;62194;49.480;10.986;2023-02-28T00:46:59;3.97;;;2.90;;
55350;SDS011;62194;49.480;10.986;2023-02-28T00:47:05;4.30;;;3.00;;
55350;SDS011;62194;49.480;10.986;2023-02-28T00:47:13;4.98;;;3.12;;
55350;SDS011;62194;49.480;10.986;2023-02-28T00:47:20;5.38;;;3.23;;
55350;SDS011;62194;49.480;10.986;2023-02-28T00:47:31;5.33;;;3.20;;
55350;SDS011;62194;49.480;10.986;2023-02-28T00:47:37;5.87;;;3.20;;
55350;SDS011;62194;49.480;10.986;2023-02-28T00:47:45;5.47;;;3.09;;
55350;SDS011;62194;49.480;10.986;2023-02-28T00:47:54;5.53;;;3.13;;
55350;SDS011;62194;49.480;10.986;2023-02-28T00:47:59;5.95;;;3.22;;
55350;SDS011;62194;49.480;10.986;2023-02-28T00:48:05;5.23;;;3.20;;
55350;SDS011;62194;49.480;10.986;2023-02-28T00:48:11;5.22;;;3.13;;
55350;SDS011;62194;49.480;10.986;2023-02-28T00:48:18;5.23;;;3.20;;
55350;SDS011;62194;49.480;10.986;2023-02-28T00:48:27;5.17;;;3.00;;
55350;SDS011;62194;49.480;10.986;2023-02-28T00:48:37;4.93;;;2.93;;
55350;SDS011;62194;49.480;10.986;2023-02-28T00:48:45;5.48;;;2.94;;
55350;SDS011;62194;49.480;10.986;2023-02-28T00:48:54;5.60;;;3.00;;